Time;durP1;ratioP1;P1;durP2;ratioP2;P2;SDS_P1;SDS_P2;PMS_P1;PMS_P2;Temp;Humidity;BMP_temperature;BMP_pressure;BME280_temperature;BME280_humidity;BME280_pressure;Samples;Min_cycle;Max_cycle;Signal;HPM_P1;HPM_P2
2023/04/25 00:01:04;;;;;;;21.60;17.60;;;;;;;13.48;80.06;99405.39;105779;1260;96702;-83
2023/04/25 00:03:50;;;;;;;20.30;16.90;;;;;;;13.43;80.68;99404.96;105840;1262;96629;-85
2023/04/25 00:06:36;;;;;;;21.40;16.50;;;;;;;13.41;81.01;99405.91;106071;1261;100022;-83
2023/04/25 00:09:22;;;;;;;17.40;15.30;;;;;;;13.38;81.53;99405.10;105775;1260;99717;-83
2023/04/25 00:12:08;;;;;;;16.50;14.50;;;;;;;13.36;81.93;99404.64;106501;1259;97720;-85
2023/04/25 00:14:53;;;;;;;16.70;14.00;;;;;;;13.31;82.53;99401.38;105723;1266;96841;-84
2023/04/25 00:17:39;;;;;;;14.80;13.20;;;;;;;13.25;82.75;99399.52;105980;1263;96580;-84
2023/04/25 00:20:25;;;;;;;16.30;13.00;;;;;;;13.21;83.19;99400.98;106081;1261;100450;-83
2023/04/25 00:23:10;;;;;;;17.30;13.00;;;;;;;13.21;83.59;99401.92;106020;1259;99112;-83
2023/04/25 00:25:55;;;;;;;14.90;12.20;;;;;;;13.16;83.66;99399.89;105891;1260;98655;-84
2023/04/25 00:28:41;;;;;;;15.40;12.50;;;;;;;13.11;83.96;99398.45;105822;1265;96661;-85
2023/04/25 00:31:28;;;;;;;13.30;11.00;;;;;;;13.07;84.10;99398.93;105808;1261;97229;-84
2023/04/25 00:34:15;;;;;;;17.90;11.40;;;;;;;13.04;84.36;99400.58;105679;1264;101296;-83
2023/04/25 00:37:03;;;;;;;15.40;11.90;;;;;;;13.00;84.64;99399.16;105524;1260;99016;-84
2023/04/25 00:39:49;;;;;;;14.50;11.40;;;;;;;12.99;84.78;99398.90;105905;1263;97738;-83
2023/04/25 00:42:36;;;;;;;16.80;11.30;;;;;;;12.97;85.03;99398.27;105701;1260;96610;-82
2023/04/25 00:45:28;;;;;;;13.00;11.10;;;;;;;12.93;85.41;99400.44;105928;1261;97118;-83
2023/04/25 00:48:14;;;;;;;15.70;12.00;;;;;;;12.93;85.73;99401.45;105920;1260;109469;-82
2023/04/25 00:51:00;;;;;;;13.70;11.10;;;;;;;12.93;85.77;99398.38;105795;1261;100784;-82
2023/04/25 00:53:48;;;;;;;20.40;12.20;;;;;;;12.92;85.75;99399.06;105648;1264;99016;-83
2023/04/25 00:56:34;;;;;;;16.40;12.00;;;;;;;12.90;86.15;99399.39;105872;1262;96617;-85
2023/04/25 00:59:20;;;;;;;14.10;11.60;;;;;;;12.87;86.20;99398.23;105738;1259;97148;-85
2023/04/25 01:02:07;;;;;;;13.70;11.90;;;;;;;12.84;86.31;99404.81;105861;1263;101284;-83
2023/04/25 01:04:53;;;;;;;16.30;12.80;;;;;;;12.79;86.67;99402.85;105715;1264;99668;-83
2023/04/25 01:07:39;;;;;;;16.20;10.70;;;;;;;12.75;86.73;99404.20;105711;1260;97802;-82
2023/04/25 01:10:24;;;;;;;14.00;11.80;;;;;;;12.72;87.15;99405.27;105710;1264;96671;-84
2023/04/25 01:13:10;;;;;;;15.10;11.70;;;;;;;12.72;87.07;99405.47;105880;1264;96611;-84
2023/04/25 01:15:56;;;;;;;13.40;11.10;;;;;;;12.69;86.88;99403.83;105755;1260;99990;-84
2023/04/25 01:18:43;;;;;;;11.90;10.50;;;;;;;12.67;87.01;99406.31;105853;1260;100354;-83
2023/04/25 01:21:29;;;;;;;13.70;10.50;;;;;;;12.66;86.98;99403.21;105897;1260;97854;-84
2023/04/25 01:24:16;;;;;;;12.70;10.00;;;;;;;12.64;87.34;99401.98;105752;1259;96581;-84
2023/04/25 01:27:02;;;;;;;14.10;10.30;;;;;;;12.60;87.47;99400.90;105886;1260;96442;-83
2023/04/25 01:29:48;;;;;;;11.60;9.60;;;;;;;12.59;87.39;99399.11;105565;1261;101226;-84
2023/04/25 01:32:38;;;;;;;10.50;8.60;;;;;;;12.58;87.44;99392.68;105595;1259;153371;-84
2023/04/25 01:35:24;;;;;;;14.30;9.60;;;;;;;12.53;87.55;99389.80;105812;1260;97720;-84
2023/04/25 01:38:14;;;;;;;10.60;8.90;;;;;;;12.51;87.80;99390.13;105681;1259;97423;-83
2023/04/25 01:40:59;;;;;;;11.60;9.30;;;;;;;12.49;87.74;99390.45;105749;1260;97147;-84
2023/04/25 01:43:45;;;;;;;11.40;8.60;;;;;;;12.49;87.87;99390.13;105640;1260;100091;-82
2023/04/25 01:46:33;;;;;;;11.90;9.60;;;;;;;12.49;87.87;99391.85;105817;1259;99076;-84
2023/04/25 01:49:19;;;;;;;13.90;9.20;;;;;;;12.48;87.75;99395.22;105782;1263;98243;-85
2023/04/25 01:52:05;;;;;;;13.20;8.60;;;;;;;12.48;87.76;99397.70;105782;1266;97458;-83
2023/04/25 01:54:51;;;;;;;10.60;9.10;;;;;;;12.49;87.90;99400.83;105635;1260;96593;-83
2023/04/25 01:57:38;;;;;;;11.40;9.00;;;;;;;12.50;87.81;99397.48;105780;1263;101302;-83
2023/04/25 02:00:24;;;;;;;12.30;9.20;;;;;;;12.51;88.02;99394.07;105804;1263;99094;-83
2023/04/25 02:03:10;;;;;;;11.40;9.20;;;;;;;12.51;88.00;99397.13;105795;1264;97743;-83
2023/04/25 02:05:55;;;;;;;11.60;9.20;;;;;;;12.48;88.25;99393.93;105870;1260;96628;-82
2023/04/25 02:08:41;;;;;;;12.20;9.60;;;;;;;12.44;88.46;99390.98;105752;1260;97144;-83
2023/04/25 02:11:26;;;;;;;12.90;10.00;;;;;;;12.41;88.57;99393.73;105801;1259;100895;-85
2023/04/25 02:14:31;;;;;;;12.20;9.60;;;;;;;12.40;88.96;99390.98;105745;1264;99094;-83
2023/04/25 02:17:37;;;;;;;11.80;9.40;;;;;;;12.38;89.02;99390.89;105864;1259;97766;-83
2023/04/25 02:20:24;;;;;;;11.70;9.10;;;;;;;12.36;89.33;99389.91;105705;1265;96624;-85
2023/04/25 02:23:10;;;;;;;10.20;9.00;;;;;;;12.33;89.47;99389.84;105775;1260;97061;-84
2023/04/25 02:25:57;;;;;;;13.40;9.20;;;;;;;12.32;89.65;99390.52;105828;1263;100749;-84
2023/04/25 02:28:42;;;;;;;12.70;9.10;;;;;;;12.33;89.69;99389.59;105803;1259;100892;-84
2023/04/25 02:31:28;;;;;;;11.70;9.10;;;;;;;12.32;89.74;99391.25;105633;1264;97783;-83
2023/04/25 02:34:14;;;;;;;11.00;9.00;;;;;;;12.31;90.04;99388.34;105834;1260;96526;-83
2023/04/25 02:36:59;;;;;;;10.90;9.70;;;;;;;12.30;90.07;99390.17;105915;1264;98290;-84
2023/04/25 02:39:45;;;;;;;13.80;9.10;;;;;;;12.27;90.20;99391.44;105797;1260;101299;-86
2023/04/25 02:42:32;;;;;;;11.30;9.30;;;;;;;12.26;90.39;99390.01;105801;1262;99152;-85
2023/04/25 02:45:18;;;;;;;11.90;9.10;;;;;;;12.26;90.39;99388.65;105712;1259;97744;-83
2023/04/25 02:48:04;;;;;;;11.00;8.60;;;;;;;12.24;90.28;99388.02;105936;1260;96571;-84
2023/04/25 02:50:51;;;;;;;13.70;9.10;;;;;;;12.23;90.31;99383.70;105832;1262;97134;-83
2023/04/25 02:53:36;;;;;;;11.10;7.60;;;;;;;12.23;90.37;99382.05;105844;1261;109507;-84
2023/04/25 02:56:22;;;;;;;12.00;9.10;;;;;;;12.21;90.28;99385.46;105618;1264;99299;-84
2023/04/25 02:59:08;;;;;;;9.50;7.60;;;;;;;12.20;90.33;99387.96;105565;1259;97745;-83
2023/04/25 03:01:54;;;;;;;9.90;7.90;;;;;;;12.18;90.39;99385.83;105674;1264;96563;-84
2023/04/25 03:04:40;;;;;;;9.40;7.80;;;;;;;12.17;90.25;99383.78;105767;1264;97134;-84
2023/04/25 03:07:26;;;;;;;8.50;7.40;;;;;;;12.14;90.39;99378.33;105873;1259;101498;-84
2023/04/25 03:10:12;;;;;;;11.40;7.90;;;;;;;12.12;90.24;99376.91;105739;1259;99755;-83
2023/04/25 03:12:58;;;;;;;9.30;7.00;;;;;;;12.12;90.47;99380.71;105575;1259;99133;-84
2023/04/25 03:15:44;;;;;;;7.90;6.80;;;;;;;12.12;90.52;99381.09;105798;1259;96538;-84
2023/04/25 03:18:30;;;;;;;10.60;7.30;;;;;;;12.10;90.62;99382.53;105850;1259;96730;-83
2023/04/25 03:21:15;;;;;;;8.70;7.60;;;;;;;12.08;90.55;99384.67;106059;1258;100029;-85
2023/04/25 03:24:04;;;;;;;9.00;7.30;;;;;;;12.06;90.52;99384.51;105903;1262;99089;-83
2023/04/25 03:26:50;;;;;;;9.10;7.30;;;;;;;12.02;90.55;99389.21;106264;1258;97766;-83
2023/04/25 03:29:36;;;;;;;7.80;6.70;;;;;;;11.99;90.81;99392.46;105760;1264;96658;-82
2023/04/25 03:32:23;;;;;;;12.40;7.50;;;;;;;11.97;91.01;99390.84;105920;1259;96914;-82
2023/04/25 03:35:08;;;;;;;11.60;7.90;;;;;;;11.95;91.14;99391.70;105638;1259;100733;-84
2023/04/25 03:37:54;;;;;;;11.10;7.40;;;;;;;11.91;91.42;99392.23;105628;1261;99084;-83
2023/04/25 03:40:45;;;;;;;8.60;7.10;;;;;;;11.89;91.58;99387.02;105659;1265;99011;-83
2023/04/25 03:43:40;;;;;;;8.90;7.20;;;;;;;11.87;91.61;99388.58;105976;1263;96721;-84
2023/04/25 03:46:29;;;;;;;7.70;6.80;;;;;;;11.88;91.88;99391.00;105724;1260;96620;-83
2023/04/25 03:49:16;;;;;;;8.20;6.70;;;;;;;11.88;92.27;99395.40;105846;1259;101328;-83
2023/04/25 03:52:18;;;;;;;8.60;7.20;;;;;;;11.86;92.52;99399.69;105851;1263;99078;-83
2023/04/25 03:55:04;;;;;;;10.70;8.30;;;;;;;11.85;92.81;99402.17;105792;1260;97734;-84
2023/04/25 03:57:50;;;;;;;9.50;7.40;;;;;;;11.84;92.90;99405.40;105934;1259;96713;-83
2023/04/25 04:00:36;;;;;;;9.30;8.00;;;;;;;11.85;93.17;99403.66;105964;1260;97182;-83
2023/04/25 04:03:22;;;;;;;9.30;7.70;;;;;;;11.85;93.11;99401.27;105779;1264;100156;-84
2023/04/25 04:06:09;;;;;;;10.00;8.00;;;;;;;11.82;93.31;99403.82;106023;1260;99116;-82
2023/04/25 04:08:58;;;;;;;9.60;7.80;;;;;;;11.79;93.40;99408.77;105664;1260;97743;-84
2023/04/25 04:11:44;;;;;;;12.90;9.60;;;;;;;11.75;93.45;99406.58;105683;1264;96803;-83
2023/04/25 04:14:30;;;;;;;10.00;8.10;;;;;;;11.74;93.44;99409.70;105694;1264;96619;-83
2023/04/25 04:17:16;;;;;;;13.20;8.70;;;;;;;11.71;93.81;99413.52;105721;1259;101264;-82
2023/04/25 04:20:03;;;;;;;11.80;9.50;;;;;;;11.67;93.71;99419.90;105631;1261;99074;-82
2023/04/25 04:22:50;;;;;;;13.60;9.30;;;;;;;11.64;94.13;99423.55;105752;1261;97818;-83
2023/04/25 04:25:36;;;;;;;10.10;8.80;;;;;;;11.61;94.14;99424.39;105704;1259;96643;-83
2023/04/25 04:29:01;;;;;;;12.10;8.10;;;;;;;11.58;94.38;99431.98;105724;1259;96584;-82
2023/04/25 04:32:00;;;;;;;12.10;9.10;;;;;;;11.54;94.42;99440.14;105960;1259;100740;-83
2023/04/25 04:34:47;;;;;;;8.30;7.20;;;;;;;11.55;94.53;99442.98;105824;1259;100745;-83
2023/04/25 04:37:36;;;;;;;11.00;8.90;;;;;;;11.52;94.63;99445.64;105765;1263;98291;-82
2023/04/25 04:40:23;;;;;;;12.10;8.30;;;;;;;11.49;94.63;99446.29;105974;1259;96528;-82
2023/04/25 04:43:26;;;;;;;9.80;8.20;;;;;;;11.49;95.11;99452.52;105697;1264;97078;-83
2023/04/25 04:46:22;;;;;;;9.00;7.60;;;;;;;11.48;95.30;99459.89;105845;1264;99989;-81
2023/04/25 04:49:20;;;;;;;10.20;9.20;;;;;;;11.48;95.33;99461.44;106057;1259;99093;-82
2023/04/25 04:52:20;;;;;;;12.90;9.40;;;;;;;11.52;95.64;99467.68;105719;1264;98292;-85
2023/04/25 04:55:19;;;;;;;12.30;9.80;;;;;;;11.55;95.51;99466.83;105771;1265;96702;-84
2023/04/25 04:58:25;;;;;;;11.70;8.50;;;;;;;11.58;95.73;99464.98;105843;1259;97065;-82
2023/04/25 05:01:26;;;;;;;13.80;9.70;;;;;;;11.58;95.92;99462.92;105658;1259;100217;-82
2023/04/25 05:04:35;;;;;;;12.10;9.20;;;;;;;11.60;95.88;99462.77;106146;1259;99149;-84
2023/04/25 05:07:27;;;;;;;11.50;9.20;;;;;;;11.60;95.49;99458.86;105646;1264;97804;-84
2023/04/25 05:10:33;;;;;;;12.10;9.60;;;;;;;11.57;95.52;99455.59;105890;1259;96699;-84
2023/04/25 05:13:36;;;;;;;10.60;8.10;;;;;;;11.48;95.42;99450.21;105880;1259;97145;-85
2023/04/25 05:16:38;;;;;;;12.50;8.70;;;;;;;11.42;95.47;99449.00;106241;1264;100023;-84
2023/04/25 05:19:50;;;;;;;11.50;8.70;;;;;;;11.37;95.60;99449.22;105793;1259;99137;-82
2023/04/25 05:22:45;;;;;;;9.50;7.00;;;;;;;11.32;95.61;99449.29;105909;1263;97711;-83
2023/04/25 05:25:51;;;;;;;10.40;8.20;;;;;;;11.24;95.09;99451.70;105705;1259;96978;-84
2023/04/25 05:28:59;;;;;;;12.30;8.00;;;;;;;11.21;95.28;99453.55;106026;1259;97081;-83
2023/04/25 05:32:09;;;;;;;8.20;7.10;;;;;;;11.20;95.42;99455.38;105996;1259;101627;-83
2023/04/25 05:34:54;;;;;;;8.80;7.70;;;;;;;11.18;95.15;99459.14;105927;1259;100822;-83
2023/04/25 05:37:51;;;;;;;9.10;7.10;;;;;;;11.10;94.98;99462.41;105813;1263;98427;-81
2023/04/25 05:40:38;;;;;;;9.10;7.60;;;;;;;11.09;95.39;99468.83;106006;1259;96701;-85
2023/04/25 05:43:35;;;;;;;12.00;7.20;;;;;;;11.06;95.32;99472.38;105768;1259;97154;-83
2023/04/25 05:46:41;;;;;;;10.80;7.40;;;;;;;11.07;95.70;99474.93;106043;1263;99958;-77
2023/04/25 05:49:45;;;;;;;9.30;6.90;;;;;;;11.11;95.68;99481.83;106012;1259;99094;-81
2023/04/25 05:53:02;;;;;;;8.50;6.60;;;;;;;11.14;95.83;99482.07;105449;1262;98999;-83
2023/04/25 05:55:51;;;;;;;8.40;6.90;;;;;;;11.13;95.88;99483.39;105974;1259;96619;-82
2023/04/25 05:58:41;;;;;;;7.40;6.60;;;;;;;11.10;95.90;99485.42;105869;1259;97145;-82
2023/04/25 06:01:29;;;;;;;10.00;7.80;;;;;;;11.08;96.02;99486.55;105768;1263;100024;-81
2023/04/25 06:04:15;;;;;;;8.80;7.80;;;;;;;11.09;96.07;99488.61;106162;1259;99834;-77
2023/04/25 06:07:01;;;;;;;8.50;7.60;;;;;;;11.09;95.97;99489.14;105257;1258;98666;-86
2023/04/25 06:09:47;;;;;;;8.10;6.60;;;;;;;11.08;95.61;99490.22;106159;1267;96633;-85
2023/04/25 06:12:33;;;;;;;7.00;5.70;;;;;;;11.01;94.80;99494.64;106027;1258;97135;-86
2023/04/25 06:15:19;;;;;;;7.30;5.70;;;;;;;10.90;94.56;99498.21;105866;1259;102511;-82
2023/04/25 06:18:06;;;;;;;9.00;6.00;;;;;;;10.82;94.26;99495.98;105830;1264;99862;-80
2023/04/25 06:20:53;;;;;;;6.70;5.20;;;;;;;10.74;93.92;99498.60;106873;1260;98521;-84
2023/04/25 06:23:39;;;;;;;5.80;4.90;;;;;;;10.71;94.30;99501.08;106417;1259;96613;-88
2023/04/25 06:26:38;;;;;;;6.50;5.40;;;;;;;10.69;93.87;99502.21;106310;1259;96700;-89
2023/04/25 06:29:24;;;;;;;8.70;7.90;;;;;;;10.64;93.92;99508.50;106322;1259;99991;-84
2023/04/25 06:32:10;;;;;;;8.70;7.80;;;;;;;10.62;93.89;99511.10;106164;1259;99332;-83
2023/04/25 06:34:56;;;;;;;12.00;7.10;;;;;;;10.59;93.80;99516.72;105760;1259;97714;-84
2023/04/25 06:37:42;;;;;;;7.40;6.30;;;;;;;10.57;94.05;99517.88;105776;1259;96605;-83
2023/04/25 06:40:27;;;;;;;7.30;6.30;;;;;;;10.57;94.19;99520.39;105913;1262;97061;-83
2023/04/25 06:43:13;;;;;;;8.10;7.20;;;;;;;10.59;94.08;99520.42;105919;1264;100577;-79
2023/04/25 06:46:26;;;;;;;8.90;8.00;;;;;;;10.54;94.07;99521.96;105235;1264;100413;-80
2023/04/25 06:49:13;;;;;;;5.90;5.10;;;;;;;10.51;94.36;99525.89;106050;1263;97719;-84
2023/04/25 06:51:59;;;;;;;6.40;5.70;;;;;;;10.46;94.17;99527.40;105938;1264;97402;-83
2023/04/25 06:54:45;;;;;;;5.10;4.40;;;;;;;10.43;94.39;99527.38;106105;1259;96664;-87
2023/04/25 06:57:53;;;;;;;7.20;4.00;;;;;;;10.43;94.34;99530.86;105866;1259;100026;-82
2023/04/25 07:00:57;;;;;;;4.60;4.20;;;;;;;10.43;94.59;99534.08;106093;1259;100415;-82
2023/04/25 07:03:44;;;;;;;4.30;3.70;;;;;;;10.44;94.82;99535.89;106136;1261;97725;-80
2023/04/25 07:06:37;;;;;;;7.00;4.00;;;;;;;10.43;94.83;99536.84;105936;1263;96425;-81
2023/04/25 07:09:23;;;;;;;5.10;3.50;;;;;;;10.45;95.07;99537.24;106044;1260;97295;-81
2023/04/25 07:12:09;;;;;;;4.40;3.40;;;;;;;10.48;95.00;99536.66;105977;1259;100113;-83
2023/04/25 07:14:54;;;;;;;4.20;3.40;;;;;;;10.49;94.84;99537.40;105770;1260;99102;-83
2023/04/25 07:17:39;;;;;;;5.50;3.80;;;;;;;10.54;94.79;99540.35;105901;1259;97749;-79
2023/04/25 07:20:27;;;;;;;4.00;3.60;;;;;;;10.58;94.99;99541.57;105373;1263;96553;-80
2023/04/25 07:23:13;;;;;;;4.60;3.90;;;;;;;10.63;95.37;99545.09;105809;1260;97226;-78
2023/04/25 07:25:59;;;;;;;5.30;3.80;;;;;;;10.68;95.37;99544.95;106132;1263;100059;-86
2023/04/25 07:28:50;;;;;;;5.50;4.10;;;;;;;10.71;95.26;99545.41;106314;1259;100338;-89
2023/04/25 07:31:36;;;;;;;;;;;;;;;10.73;95.34;99542.52;106511;1259;98629;-81
2023/04/25 10:35:15;;;;;;;4.10;2.50;;;;;;;11.90;82.57;99629.79;90739;1282;100536;-85
2023/04/25 10:38:10;;;;;;;3.70;2.90;;;;;;;11.97;82.62;99635.22;104283;1281;100422;-78
2023/04/25 10:41:08;;;;;;;3.40;2.30;;;;;;;12.01;81.87;99635.31;104297;1282;98521;-82
2023/04/25 10:44:01;;;;;;;3.20;2.20;;;;;;;12.03;81.27;99630.93;104905;1283;96667;-83
2023/04/25 10:46:46;;;;;;;2.70;2.50;;;;;;;12.04;80.58;99630.30;104877;1283;97885;-82
2023/04/25 10:49:37;;;;;;;2.50;2.20;;;;;;;12.03;80.29;99629.15;104206;1287;99948;-83
2023/04/25 10:52:28;;;;;;;3.20;2.50;;;;;;;12.05;80.32;99631.19;104073;1283;100394;-82
2023/04/25 10:55:16;;;;;;;4.30;2.30;;;;;;;12.04;80.07;99631.54;104345;1284;99238;-81
2023/04/25 10:58:04;;;;;;;4.80;2.80;;;;;;;12.03;79.70;99633.94;104390;1285;96662;-84
2023/04/25 11:00:50;;;;;;;3.20;2.90;;;;;;;12.00;79.18;99636.73;104306;1285;98433;-86
2023/04/25 11:03:43;;;;;;;3.80;2.80;;;;;;;11.96;78.87;99637.33;104209;1283;100020;-84
2023/04/25 11:06:41;;;;;;;3.30;2.80;;;;;;;11.89;78.41;99638.88;104366;1283;99704;-80
2023/04/25 11:09:27;;;;;;;3.70;2.80;;;;;;;11.79;77.82;99636.27;104446;1283;98685;-83
2023/04/25 11:12:13;;;;;;;5.20;3.00;;;;;;;11.78;78.49;99634.10;104452;1285;96670;-82
2023/04/25 11:15:05;;;;;;;4.50;3.00;;;;;;;11.84;79.09;99633.05;104558;1283;96578;-88
2023/04/25 11:17:58;;;;;;;3.40;3.10;;;;;;;11.91;79.07;99632.51;103680;1286;100776;-82
2023/04/25 11:20:44;;;;;;;3.60;3.10;;;;;;;11.98;78.44;99632.75;104090;1285;99181;-82
2023/04/25 11:23:30;;;;;;;4.50;2.70;;;;;;;12.02;78.19;99629.39;104357;1282;99051;-82
2023/04/25 11:26:16;;;;;;;3.10;2.60;;;;;;;12.04;77.56;99624.92;104196;1285;96742;-85
2023/04/25 11:29:02;;;;;;;3.80;3.30;;;;;;;12.03;77.53;99624.48;104133;1285;96511;-85
2023/04/25 11:31:49;;;;;;;3.80;2.80;;;;;;;12.04;77.61;99626.66;104723;1282;101513;-87
2023/04/25 11:34:34;;;;;;;4.80;3.00;;;;;;;12.10;77.98;99626.24;104660;1285;99135;-91
2023/04/25 11:37:20;;;;;;;3.30;2.80;;;;;;;12.18;78.02;99625.21;104385;1285;97810;-90
2023/04/25 11:40:08;;;;;;;3.90;3.00;;;;;;;12.19;77.62;99624.13;104495;1285;96679;-86
2023/04/25 11:42:54;;;;;;;3.30;3.10;;;;;;;12.17;76.96;99622.98;104209;1282;96994;-85
2023/04/25 11:45:39;;;;;;;3.20;2.90;;;;;;;12.12;76.58;99622.99;104261;1281;101312;-78
2023/04/25 11:48:25;;;;;;;3.80;3.30;;;;;;;12.13;77.50;99626.61;103541;1283;107743;-85
2023/04/25 11:51:11;;;;;;;3.60;3.30;;;;;;;12.15;77.38;99626.02;104110;1286;98927;-79
2023/04/25 11:53:56;;;;;;;5.30;3.60;;;;;;;12.13;77.35;99619.85;104079;1282;97243;-78
2023/04/25 11:56:45;;;;;;;3.90;3.50;;;;;;;12.09;76.92;99618.81;103716;1281;97189;-82
2023/04/25 11:59:31;;;;;;;4.90;3.30;;;;;;;12.08;77.08;99618.52;104109;1282;100032;-84
2023/04/25 12:02:26;;;;;;;3.30;3.00;;;;;;;12.08;76.65;99613.62;104038;1285;99113;-81
2023/04/25 12:05:15;;;;;;;3.50;3.20;;;;;;;12.08;76.73;99612.45;104066;1283;99135;-82
2023/04/25 12:08:11;;;;;;;4.20;3.60;;;;;;;12.10;75.97;99608.69;104331;1284;96357;-82
2023/04/25 12:10:57;;;;;;;3.80;3.40;;;;;;;12.10;76.05;99603.77;104198;1282;96952;-83
2023/04/25 13:33:27;;;;;;;3.00;2.70;;;;;;;12.64;71.10;99589.78;96746;1283;98714;-85
2023/04/25 13:36:12;;;;;;;5.60;3.00;;;;;;;12.66;71.11;99587.65;104254;1283;100882;-85
2023/04/25 13:38:58;;;;;;;5.60;2.50;;;;;;;12.69;71.26;99591.49;104342;1283;99129;-84
2023/04/25 13:41:43;;;;;;;4.10;3.10;;;;;;;12.71;71.07;99595.23;104066;1285;98752;-84
2023/04/25 13:44:29;;;;;;;5.60;3.40;;;;;;;12.67;70.92;99594.66;104232;1285;96668;-86
2023/04/25 13:47:14;;;;;;;5.20;3.40;;;;;;;12.60;70.74;99600.36;103991;1285;97166;-84
2023/04/25 13:50:02;;;;;;;7.80;3.20;;;;;;;12.52;70.95;99605.12;104163;1284;100777;-81
2023/04/25 13:52:48;;;;;;;3.70;3.10;;;;;;;12.45;71.17;99605.08;104085;1285;100065;-79
2023/04/25 13:55:36;;;;;;;7.30;3.40;;;;;;;12.37;71.29;99602.88;104188;1283;97750;-80
2023/04/25 13:58:22;;;;;;;3.90;2.70;;;;;;;12.31;71.67;99602.91;103787;1283;97203;-80
2023/04/25 14:01:08;;;;;;;4.70;3.10;;;;;;;12.27;71.66;99606.34;104328;1285;97112;-81
2023/04/25 14:03:53;;;;;;;5.00;3.30;;;;;;;12.21;71.78;99608.88;103985;1283;100060;-83
2023/04/25 14:06:39;;;;;;;3.50;3.20;;;;;;;12.18;72.40;99611.73;103916;1281;100548;-83
2023/04/25 14:09:26;;;;;;;4.00;3.20;;;;;;;12.17;72.19;99608.91;104390;1282;98812;-88
2023/04/25 14:12:12;;;;;;;6.80;3.50;;;;;;;12.16;72.34;99609.70;104045;1283;96653;-83
2023/04/25 14:14:58;;;;;;;4.80;3.80;;;;;;;12.17;72.62;99610.20;104282;1284;96666;-85
2023/04/25 14:17:45;;;;;;;4.80;3.40;;;;;;;12.15;73.17;99616.86;104262;1285;100016;-84
2023/04/25 14:20:31;;;;;;;5.70;4.00;;;;;;;12.19;74.15;99615.87;104331;1283;101053;-86
2023/04/25 14:23:17;;;;;;;8.30;4.50;;;;;;;12.22;75.04;99614.83;104138;1284;99052;-83
2023/04/25 14:26:03;;;;;;;4.60;4.10;;;;;;;12.23;75.60;99612.08;104101;1285;96629;-86
2023/04/25 14:28:49;;;;;;;7.70;4.00;;;;;;;12.24;75.73;99612.35;104501;1285;96813;-89
2023/04/25 14:31:35;;;;;;;4.90;4.00;;;;;;;12.20;75.50;99613.05;104039;1283;101307;-88
2023/04/25 14:34:21;;;;;;;4.10;3.50;;;;;;;12.14;74.84;99613.11;104139;1283;99265;-85
2023/04/25 14:37:06;;;;;;;4.70;3.40;;;;;;;12.10;74.74;99613.68;104397;1285;99534;-84
2023/04/25 14:39:52;;;;;;;6.30;3.80;;;;;;;12.08;75.00;99616.38;104601;1283;96647;-87
2023/04/25 14:42:38;;;;;;;7.70;4.60;;;;;;;12.06;75.28;99621.52;104105;1287;96805;-87
2023/04/25 14:45:23;;;;;;;6.90;4.30;;;;;;;11.99;75.43;99620.10;104505;1288;100067;-86
2023/04/25 14:48:09;;;;;;;6.20;4.50;;;;;;;11.90;75.57;99629.45;104220;1285;99141;-83
2023/04/25 14:50:56;;;;;;;5.30;4.10;;;;;;;11.76;76.19;99630.19;104162;1285;97841;-83
2023/04/25 14:53:41;;;;;;;6.30;3.80;;;;;;;11.67;76.61;99633.79;103917;1285;96654;-84
2023/04/25 14:56:27;;;;;;;4.70;3.10;;;;;;;11.61;76.67;99636.78;104104;1283;97140;-84
2023/04/25 14:59:12;;;;;;;4.80;3.70;;;;;;;11.50;76.76;99639.45;103978;1283;100975;-84
2023/04/25 15:01:57;;;;;;;4.70;2.70;;;;;;;11.42;76.97;99641.27;104308;1283;99117;-80
2023/04/25 15:04:43;;;;;;;3.90;3.60;;;;;;;11.34;77.16;99642.55;104901;1282;97805;-89
2023/04/25 15:07:30;;;;;;;5.70;3.80;;;;;;;11.26;77.54;99641.77;104682;1286;96679;-91
2023/04/25 15:10:18;;;;;;;4.40;3.80;;;;;;;11.21;78.31;99643.05;104464;1283;97170;-89
2023/04/25 15:13:04;;;;;;;5.80;4.60;;;;;;;11.19;78.91;99644.54;104629;1283;108706;-91
2023/04/25 15:15:53;;;;;;;6.80;4.10;;;;;;;11.16;79.31;99648.05;104502;1286;100964;-90
2023/04/25 15:18:41;;;;;;;5.40;4.00;;;;;;;11.13;79.94;99650.94;104554;1285;99063;-86
2023/04/25 15:21:27;;;;;;;5.90;4.20;;;;;;;11.12;80.35;99654.55;104272;1281;96753;-84
2023/04/25 15:24:14;;;;;;;6.80;4.20;;;;;;;11.07;80.76;99654.64;104240;1282;98244;-84
2023/04/25 15:27:00;;;;;;;4.70;4.20;;;;;;;11.07;81.25;99656.50;104163;1282;100210;-82
2023/04/25 15:29:46;;;;;;;5.00;4.40;;;;;;;11.06;81.69;99657.70;104328;1285;99160;-81
2023/04/25 15:32:32;;;;;;;6.60;5.90;;;;;;;11.05;82.32;99655.52;104360;1283;97789;-80
2023/04/25 15:35:17;;;;;;;8.20;6.10;;;;;;;11.05;82.95;99657.31;104172;1283;96734;-82
2023/04/25 15:38:02;;;;;;;8.80;6.10;;;;;;;11.04;82.65;99656.85;104151;1287;96651;-81
2023/04/25 15:40:48;;;;;;;7.70;5.70;;;;;;;11.01;83.11;99653.89;104217;1283;101393;-81
2023/04/25 15:43:37;;;;;;;7.40;4.60;;;;;;;10.98;83.02;99658.31;104146;1283;100389;-81
2023/04/25 15:46:22;;;;;;;7.70;5.20;;;;;;;10.86;82.55;99659.73;104243;1283;97791;-82
2023/04/25 15:49:08;;;;;;;6.90;5.30;;;;;;;10.79;83.04;99660.89;104069;1285;96681;-81
2023/04/25 15:51:54;;;;;;;6.50;4.90;;;;;;;10.76;83.04;99662.06;104170;1283;96640;-81
2023/04/25 15:54:39;;;;;;;6.30;4.10;;;;;;;10.67;82.59;99659.52;104298;1286;99992;-82
2023/04/25 15:57:25;;;;;;;6.70;4.70;;;;;;;10.54;82.52;99658.27;104123;1283;99229;-80
2023/04/25 16:00:13;;;;;;;5.80;4.70;;;;;;;10.50;83.14;99657.92;104015;1281;99077;-81
2023/04/25 16:02:59;;;;;;;7.00;4.70;;;;;;;10.49;83.19;99662.74;104124;1283;96628;-80
2023/04/25 16:05:44;;;;;;;5.80;4.50;;;;;;;10.49;83.23;99662.79;104141;1285;97186;-82
2023/04/25 16:08:33;;;;;;;7.70;5.10;;;;;;;10.46;83.21;99659.23;104209;1285;100012;-81
2023/04/25 16:11:18;;;;;;;5.20;4.50;;;;;;;10.44;83.09;99659.05;104093;1283;99957;-80
2023/04/25 16:14:04;;;;;;;4.50;4.10;;;;;;;10.42;83.33;99656.57;104107;1283;97782;-80
2023/04/25 16:16:49;;;;;;;5.60;5.10;;;;;;;10.36;83.21;99660.20;104214;1285;96728;-81
2023/04/25 16:19:35;;;;;;;6.50;4.30;;;;;;;10.36;83.67;99660.09;104159;1285;98071;-81
2023/04/25 16:22:20;;;;;;;6.10;5.00;;;;;;;10.36;83.69;99662.27;104027;1284;100064;-80
2023/04/25 16:25:06;;;;;;;6.50;4.40;;;;;;;10.32;83.74;99664.42;104112;1283;99127;-81
2023/04/25 16:27:52;;;;;;;7.70;4.40;;;;;;;10.28;84.01;99662.03;104221;1286;97749;-81
2023/04/25 16:30:38;;;;;;;7.00;5.70;;;;;;;10.28;84.41;99662.06;104199;1282;97018;-81
2023/04/25 16:33:23;;;;;;;5.40;4.80;;;;;;;10.31;84.66;99661.19;104158;1286;97230;-82
2023/04/25 16:36:11;;;;;;;5.10;4.60;;;;;;;10.33;84.82;99662.30;104205;1283;100066;-81
2023/04/25 16:38:57;;;;;;;6.10;5.50;;;;;;;10.35;85.07;99668.61;104143;1283;100847;-82
2023/04/25 16:41:43;;;;;;;6.40;5.10;;;;;;;10.38;85.10;99670.04;104385;1283;97734;-88
2023/04/25 16:44:28;;;;;;;9.30;5.60;;;;;;;10.40;85.53;99671.35;104661;1285;96683;-88
2023/04/25 16:47:15;;;;;;;12.30;5.60;;;;;;;10.40;85.48;99672.52;104221;1285;96670;-87
2023/04/25 16:50:00;;;;;;;8.20;5.70;;;;;;;10.42;85.48;99675.88;104226;1289;100075;-88
2023/04/25 16:52:46;;;;;;;7.90;5.40;;;;;;;10.43;85.47;99676.87;104253;1283;99259;-85
2023/04/25 16:55:33;;;;;;;9.70;5.50;;;;;;;10.41;85.46;99679.39;104334;1285;97772;-87
2023/04/25 16:58:19;;;;;;;6.80;5.20;;;;;;;10.37;85.35;99682.86;104223;1283;96651;-86
2023/04/25 17:01:04;;;;;;;5.90;5.30;;;;;;;10.28;85.29;99684.17;104298;1284;97478;-86
2023/04/25 17:03:50;;;;;;;9.10;5.60;;;;;;;10.24;85.62;99685.34;104300;1285;100041;-87
2023/04/25 17:06:36;;;;;;;8.90;5.40;;;;;;;10.22;85.82;99686.06;104195;1283;101488;-85
2023/04/25 17:09:22;;;;;;;8.70;6.40;;;;;;;10.22;86.25;99693.19;104250;1286;99045;-88
2023/04/25 17:12:08;;;;;;;8.60;5.80;;;;;;;10.24;86.42;99693.95;104243;1283;96501;-88
2023/04/25 17:14:54;;;;;;;6.20;5.60;;;;;;;10.23;86.47;99695.42;104104;1286;97274;-85
2023/04/25 17:17:40;;;;;;;6.70;5.60;;;;;;;10.22;86.59;99696.67;104302;1285;100049;-86